createdAt,value
2017-02-24T00:00:50.690Z,5.4
2017-02-24T00:01:55.574Z,5.4
2017-02-24T00:03:01.554Z,5.4
2017-02-24T00:04:07.537Z,5.4
2017-02-24T00:05:13.522Z,5.4
2017-02-24T00:06:19.504Z,5.3
2017-02-24T00:07:25.490Z,5.4
2017-02-24T00:08:31.472Z,5.4
2017-02-24T00:09:37.454Z,5.4
2017-02-24T00:10:43.439Z,5.3
2017-02-24T00:11:48.325Z,5.3
2017-02-24T00:12:54.309Z,5.4
2017-02-24T00:14:00.295Z,5.3
2017-02-24T00:15:06.280Z,5.4
2017-02-24T00:16:12.264Z,5.4
2017-02-24T00:17:17.585Z,5.4
2017-02-24T00:18:23.567Z,5.3
2017-02-24T00:19:29.552Z,5.4
2017-02-24T00:20:35.535Z,5.4
2017-02-24T00:21:41.520Z,5.4
2017-02-24T00:22:46.838Z,5.4
2017-02-24T00:23:52.823Z,5.4
2017-02-24T00:24:58.810Z,5.4
2017-02-24T00:26:04.796Z,5.5
2017-02-24T00:27:10.118Z,5.4
2017-02-24T00:28:16.102Z,5.4
2017-02-24T00:29:22.085Z,5.4
2017-02-24T00:30:28.065Z,5.4
2017-02-24T00:31:32.952Z,5.4
2017-02-24T00:32:37.837Z,5.4
2017-02-24T00:33:43.825Z,5.4
2017-02-24T00:34:49.804Z,5.5
2017-02-24T00:35:55.790Z,5.5
2017-02-24T00:37:01.776Z,5.5
2017-02-24T00:38:07.756Z,5.4
2017-02-24T00:39:13.737Z,5.4
2017-02-24T00:40:19.723Z,5.4
2017-02-24T00:41:25.708Z,5.5
2017-02-24T00:42:30.593Z,5.4
2017-02-24T00:43:36.576Z,5.4
2017-02-24T00:44:42.562Z,5.5
2017-02-24T00:45:48.545Z,5.5
2017-02-24T00:46:54.530Z,5.5
2017-02-24T00:47:59.852Z,5.4
2017-02-24T00:49:05.171Z,5.5
2017-02-24T00:50:11.151Z,5.5
2017-02-24T00:51:16.464Z,5.5
2017-02-24T00:52:22.453Z,5.5
2017-02-24T00:53:28.433Z,5.5
2017-02-24T00:54:34.422Z,5.6
2017-02-24T00:55:40.407Z,5.6
2017-02-24T00:56:46.392Z,5.6
2017-02-24T00:57:52.372Z,5.6
2017-02-24T00:58:58.360Z,5.6
2017-02-24T01:00:04.343Z,5.6
2017-02-24T01:01:10.326Z,5.6
2017-02-24T01:02:16.303Z,5.6
2017-02-24T01:03:21.631Z,5.6
2017-02-24T01:04:27.612Z,5.6
2017-02-24T01:05:33.593Z,5.6
2017-02-24T01:06:38.914Z,5.7
2017-02-24T01:07:44.902Z,5.6
2017-02-24T01:08:50.883Z,5.6
2017-02-24T01:09:56.865Z,5.7
2017-02-24T01:11:02.850Z,5.7
2017-02-24T01:12:08.833Z,5.7
2017-02-24T01:13:14.820Z,5.7
2017-02-24T01:14:20.137Z,5.7
2017-02-24T01:15:26.124Z,5.7
2017-02-24T01:16:32.110Z,5.6
2017-02-24T01:17:38.093Z,5.6
2017-02-24T01:18:44.075Z,5.6
2017-02-24T01:19:50.057Z,5.7
2017-02-24T01:20:56.044Z,5.7
2017-02-24T01:22:02.025Z,5.7
2017-02-24T01:23:08.008Z,5.6
2017-02-24T01:24:13.327Z,5.7
2017-02-24T01:25:19.316Z,5.7
2017-02-24T01:26:25.299Z,5.8
2017-02-24T01:27:31.280Z,5.8
2017-02-24T01:28:37.267Z,5.8
2017-02-24T01:29:43.253Z,5.8
2017-02-24T01:30:49.236Z,5.7
2017-02-24T01:31:55.217Z,5.8
2017-02-24T01:33:01.204Z,5.8
2017-02-24T01:34:07.191Z,5.9
2017-02-24T01:35:12.661Z,5.8
2017-02-24T01:36:18.643Z,5.8
2017-02-24T01:37:24.626Z,5.8
2017-02-24T01:38:30.610Z,5.8
2017-02-24T01:39:35.930Z,5.8
2017-02-24T01:40:41.911Z,5.8
2017-02-24T01:41:47.898Z,5.8
2017-02-24T01:42:53.885Z,5.7
2017-02-24T01:43:59.869Z,5.7
2017-02-24T01:45:05.852Z,5.7
2017-02-24T01:46:11.836Z,5.8
2017-02-24T01:47:17.821Z,5.7
2017-02-24T01:48:23.800Z,5.7
2017-02-24T01:49:29.781Z,5.7
2017-02-24T01:50:35.102Z,5.6
2017-02-24T01:51:41.090Z,5.7
2017-02-24T01:52:47.069Z,5.7
2017-02-24T01:53:53.052Z,5.7
2017-02-24T01:54:59.038Z,5.7
2017-02-24T01:56:04.360Z,5.7
2017-02-24T01:57:10.343Z,5.7
2017-02-24T01:58:16.325Z,5.7
2017-02-24T01:59:20.551Z,5.6
2017-02-24T02:00:26.534Z,5.7
2017-02-24T02:01:32.517Z,5.7
2017-02-24T02:02:38.500Z,5.7
2017-02-24T02:03:44.486Z,5.7
2017-02-24T02:04:50.471Z,5.7
2017-02-24T02:05:56.453Z,5.7
2017-02-24T02:07:02.432Z,5.7
2017-02-24T02:08:08.417Z,5.8
2017-02-24T02:09:14.403Z,5.8
2017-02-24T02:10:20.381Z,5.8
2017-02-24T02:11:26.371Z,5.8
2017-02-24T02:12:31.691Z,5.8
2017-02-24T02:13:37.014Z,5.9
2017-02-24T02:14:42.993Z,5.9
2017-02-24T02:15:48.982Z,5.9
2017-02-24T02:16:54.963Z,5.8
2017-02-24T02:18:00.951Z,5.7
2017-02-24T02:19:06.929Z,5.8
2017-02-24T02:20:11.817Z,5.8
2017-02-24T02:21:17.798Z,5.8
2017-02-24T02:22:23.783Z,5.8
2017-02-24T02:23:29.766Z,5.9
2017-02-24T02:24:34.654Z,5.9
2017-02-24T02:25:39.973Z,5.9
2017-02-24T02:26:45.958Z,5.9
2017-02-24T02:27:51.943Z,5.9
2017-02-24T02:28:57.925Z,5.9
2017-02-24T02:30:03.909Z,5.9
2017-02-24T02:31:09.230Z,5.8
2017-02-24T02:32:15.212Z,5.8
2017-02-24T02:33:20.531Z,5.8
2017-02-24T02:34:26.519Z,5.8
2017-02-24T02:35:32.504Z,5.8
2017-02-24T02:36:37.826Z,5.9
2017-02-24T02:37:43.809Z,5.8
2017-02-24T02:38:49.797Z,5.8
2017-02-24T02:39:55.776Z,5.8
2017-02-24T02:41:01.760Z,5.8
2017-02-24T02:42:07.080Z,5.8
2017-02-24T02:43:13.068Z,5.8
2017-02-24T02:44:19.048Z,5.8
2017-02-24T02:45:25.034Z,5.9
2017-02-24T02:46:31.019Z,5.9
2017-02-24T02:47:37.009Z,5.9
2017-02-24T02:48:42.988Z,5.8
2017-02-24T02:49:47.645Z,5.7
2017-02-24T02:50:53.631Z,5.7
2017-02-24T02:51:59.613Z,5.8
2017-02-24T02:53:04.934Z,5.6
2017-02-24T02:54:10.917Z,5.1
2017-02-24T02:55:16.905Z,4.7
2017-02-24T02:56:22.890Z,4.6
2017-02-24T02:57:28.872Z,4.5
2017-02-24T02:58:34.856Z,4.6
2017-02-24T02:59:40.839Z,4.5
2017-02-24T03:00:46.821Z,4.1
2017-02-24T03:01:52.138Z,4
2017-02-24T03:02:58.125Z,3.9
2017-02-24T03:04:04.110Z,3.9
2017-02-24T03:05:10.096Z,3.8
2017-02-24T03:06:16.077Z,3.9
2017-02-24T03:07:22.060Z,3.9
2017-02-24T03:08:28.044Z,3.7
2017-02-24T03:09:34.026Z,3.5
2017-02-24T03:10:40.009Z,3.7
2017-02-24T03:11:45.329Z,3.7
2017-02-24T03:12:51.314Z,3.7
2017-02-24T03:13:57.298Z,3.8
2017-02-24T03:15:03.282Z,3.8
2017-02-24T03:16:09.267Z,3.7
2017-02-24T03:17:15.250Z,3.6
2017-02-24T03:18:21.232Z,3.6
2017-02-24T03:19:27.221Z,3.6
2017-02-24T03:20:33.202Z,3.6
2017-02-24T03:21:39.186Z,3.6
2017-02-24T03:22:45.170Z,3.5
2017-02-24T03:23:51.154Z,3.4
2017-02-24T03:24:57.141Z,3.5
2017-02-24T03:26:03.127Z,3.6
2017-02-24T03:27:09.110Z,3.6
2017-02-24T03:28:15.092Z,3.5
2017-02-24T03:29:21.073Z,3.6
2017-02-24T03:30:27.058Z,3.5
2017-02-24T03:31:33.041Z,3.5
2017-02-24T03:32:39.024Z,3.4
2017-02-24T03:33:45.011Z,3.4
2017-02-24T03:34:50.996Z,3.4
2017-02-24T03:35:56.977Z,3.3
2017-02-24T03:37:02.960Z,3.4
2017-02-24T03:38:08.940Z,3.3
2017-02-24T03:39:14.925Z,3.2
2017-02-24T03:40:20.912Z,3.2
2017-02-24T03:41:26.894Z,3.2
2017-02-24T03:42:32.876Z,3.3
2017-02-24T03:43:38.865Z,3.2
2017-02-24T03:44:44.846Z,3.3
2017-02-24T03:45:50.829Z,3.3
2017-02-24T03:46:56.848Z,3.3
2017-02-24T03:48:02.839Z,3.4
2017-02-24T03:49:08.823Z,3.3
2017-02-24T03:50:14.142Z,3.3
2017-02-24T03:51:20.127Z,3.3
2017-02-24T03:52:26.116Z,3.3
2017-02-24T03:53:32.100Z,3.3
2017-02-24T03:54:37.416Z,3.3
2017-02-24T03:55:43.405Z,3.3
2017-02-24T03:56:49.382Z,3.3
2017-02-24T03:57:55.367Z,3.2
2017-02-24T03:59:01.348Z,3.2
2017-02-24T04:00:07.333Z,3.2
2017-02-24T04:01:13.316Z,3.2
2017-02-24T04:02:19.305Z,3.2
2017-02-24T04:03:25.287Z,3.2
2017-02-24T04:04:31.270Z,3.2
2017-02-24T04:05:37.252Z,3.2
2017-02-24T04:06:43.239Z,3.2
2017-02-24T04:07:48.557Z,3.2
2017-02-24T04:08:54.542Z,3.2
2017-02-24T04:10:00.523Z,3.1
2017-02-24T04:11:06.509Z,3.2
2017-02-24T04:12:12.488Z,3.2
2017-02-24T04:13:18.473Z,3.2
2017-02-24T04:14:24.458Z,3.1
2017-02-24T04:15:30.446Z,3.1
2017-02-24T04:16:36.425Z,3.1
2017-02-24T04:17:42.409Z,3.2
2017-02-24T04:18:48.393Z,3.2
2017-02-24T04:19:54.374Z,3.2
2017-02-24T04:20:59.260Z,3.2
2017-02-24T04:22:04.579Z,3.2
2017-02-24T04:23:09.905Z,3.2
2017-02-24T04:24:15.228Z,3.1
2017-02-24T04:25:20.547Z,3.1
2017-02-24T04:26:27.226Z,3.1
2017-02-24T04:27:32.536Z,3.1
2017-02-24T04:28:36.762Z,3.2
2017-02-24T04:29:42.746Z,3.2
2017-02-24T04:30:48.733Z,3.1
2017-02-24T04:31:54.714Z,3.1
2017-02-24T04:33:00.764Z,3.2
2017-02-24T04:34:07.979Z,3.1
2017-02-24T04:35:12.352Z,3.1
2017-02-24T04:36:18.341Z,3.1
2017-02-24T04:37:23.092Z,3.1
2017-02-24T04:38:29.079Z,3.2
2017-02-24T04:39:35.044Z,3.2
2017-02-24T04:40:39.930Z,3.2
2017-02-24T04:41:45.908Z,3.2
2017-02-24T04:42:51.894Z,3.2
2017-02-24T04:43:57.880Z,3.2
2017-02-24T04:45:03.864Z,3.2
2017-02-24T04:46:09.848Z,3.1
2017-02-24T04:47:15.832Z,3.2
2017-02-24T04:48:21.814Z,3.1
2017-02-24T04:49:27.801Z,2.9
2017-02-24T04:50:33.122Z,2.9
2017-02-24T04:51:39.108Z,2.9
2017-02-24T04:52:45.090Z,2.8
2017-02-24T04:53:51.074Z,2.6
2017-02-24T04:54:57.059Z,2.6
2017-02-24T04:56:03.040Z,2.7
2017-02-24T04:57:07.927Z,2.7
2017-02-24T04:58:13.908Z,2.7
2017-02-24T04:59:19.223Z,2.9
2017-02-24T05:00:24.106Z,3
2017-02-24T05:01:30.095Z,2.8
2017-02-24T05:02:36.081Z,2.8
2017-02-24T05:03:42.062Z,2.8
2017-02-24T05:04:48.044Z,2.8
2017-02-24T05:05:52.933Z,2.7
2017-02-24T05:06:58.911Z,2.7
2017-02-24T05:08:04.893Z,2.7
2017-02-24T05:09:09.776Z,2.7
2017-02-24T05:10:15.761Z,2.7
2017-02-24T05:11:21.751Z,2.7
2017-02-24T05:12:27.732Z,2.7
2017-02-24T05:13:33.716Z,2.7
2017-02-24T05:14:39.697Z,2.8
2017-02-24T05:15:45.024Z,2.8
2017-02-24T05:16:51.005Z,2.7
2017-02-24T05:17:56.991Z,2.7
2017-02-24T05:19:02.974Z,2.6
2017-02-24T05:20:08.957Z,2.7
2017-02-24T05:21:14.941Z,2.8
2017-02-24T05:22:20.924Z,2.8
2017-02-24T05:23:26.913Z,2.7
2017-02-24T05:24:32.892Z,2.7
2017-02-24T05:25:38.874Z,2.7
2017-02-24T05:26:44.857Z,2.7
2017-02-24T05:27:50.845Z,2.7
2017-02-24T05:28:56.824Z,2.7
2017-02-24T05:30:02.810Z,2.7
2017-02-24T05:31:07.698Z,2.7
2017-02-24T05:32:13.685Z,2.7
2017-02-24T05:33:19.663Z,2.7
2017-02-24T05:34:25.646Z,2.8
2017-02-24T05:35:31.631Z,2.8
2017-02-24T05:36:37.616Z,2.8
2017-02-24T05:37:43.602Z,2.8
2017-02-24T05:38:49.582Z,2.7
2017-02-24T05:39:55.567Z,2.6
2017-02-24T05:41:01.552Z,2.6
2017-02-24T05:42:07.534Z,2.7
2017-02-24T05:43:12.417Z,2.7
2017-02-24T05:44:17.302Z,2.6
2017-02-24T05:45:23.283Z,2.6
2017-02-24T05:46:29.266Z,2.5
2017-02-24T05:47:34.152Z,2.7
2017-02-24T05:48:40.138Z,2.6
2017-02-24T05:49:45.455Z,2.6
2017-02-24T05:50:51.437Z,2.6
2017-02-24T05:51:56.756Z,2.7
2017-02-24T05:53:01.642Z,2.5
2017-02-24T05:54:06.960Z,2.6
2017-02-24T05:55:12.947Z,2.6
2017-02-24T05:56:18.930Z,2.6
2017-02-24T05:57:24.917Z,2.4
2017-02-24T05:58:30.899Z,2.5
2017-02-24T05:59:36.881Z,2.5
2017-02-24T06:00:43.126Z,2.5
2017-02-24T06:01:48.867Z,2.6
2017-02-24T06:02:54.851Z,2.6
2017-02-24T06:04:00.833Z,2.6
2017-02-24T06:05:06.159Z,2.6
2017-02-24T06:06:11.044Z,2.4
2017-02-24T06:07:17.023Z,2.5
2017-02-24T06:08:23.005Z,2.5
2017-02-24T06:09:28.995Z,2.4
2017-02-24T06:11:43.678Z,2.4
2017-02-24T06:12:49.670Z,2.5
2017-02-24T06:13:55.651Z,2.4
2017-02-24T06:15:01.732Z,2.4
2017-02-24T06:16:07.717Z,2.5
2017-02-24T06:17:13.706Z,2.4
2017-02-24T06:18:19.689Z,2.4
2017-02-24T06:19:25.674Z,2.5
2017-02-24T06:20:31.651Z,2.5
2017-02-24T06:21:37.636Z,2.4
2017-02-24T06:22:42.958Z,2.3
2017-02-24T06:23:48.939Z,2.4
2017-02-24T06:24:54.938Z,2.4
2017-02-24T06:26:00.923Z,2.5
2017-02-24T06:27:06.911Z,2.4
2017-02-24T06:28:12.890Z,2.4
2017-02-24T06:29:18.875Z,2.3
2017-02-24T06:30:24.857Z,2.3
2017-02-24T06:31:30.840Z,2.3
2017-02-24T06:32:36.821Z,2.3
2017-02-24T06:33:42.804Z,2.3
2017-02-24T06:34:48.788Z,2.3
2017-02-24T06:35:54.773Z,2.4
2017-02-24T06:37:00.756Z,2.4
2017-02-24T06:38:06.741Z,2.4
2017-02-24T06:39:12.724Z,2.4
2017-02-24T06:40:18.708Z,2.5
2017-02-24T06:41:24.687Z,2.4
2017-02-24T06:42:30.673Z,2.4
2017-02-24T06:43:36.659Z,2.4
2017-02-24T06:44:42.647Z,2.4
2017-02-24T06:45:48.626Z,2.4
2017-02-24T06:46:53.517Z,2.4
2017-02-24T06:47:59.496Z,2.4
2017-02-24T06:49:04.816Z,2.4
2017-02-24T06:50:10.806Z,2.3
2017-02-24T06:51:16.788Z,2.4
2017-02-24T06:53:30.372Z,2.4
2017-02-24T06:54:36.471Z,2.4
2017-02-24T06:55:42.416Z,2.3
2017-02-24T06:56:49.159Z,2.3
2017-02-24T06:57:56.369Z,2.3
2017-02-24T06:59:01.674Z,2.3
2017-02-24T07:00:07.738Z,2.4
2017-02-24T07:01:13.877Z,2.4
2017-02-24T07:02:19.804Z,2.3
2017-02-24T07:03:25.885Z,2.3
2017-02-24T07:04:31.921Z,2.4
2017-02-24T07:05:37.822Z,2.5
2017-02-24T07:06:43.828Z,2.5
2017-02-24T07:07:49.815Z,2.5
2017-02-24T07:08:55.799Z,2.5
2017-02-24T07:10:01.791Z,2.4
2017-02-24T07:11:07.769Z,2.4
2017-02-24T07:12:13.776Z,2.2
2017-02-24T07:13:19.763Z,2.2
2017-02-24T07:14:25.745Z,2.3
2017-02-24T07:15:31.775Z,2.4
2017-02-24T07:16:37.755Z,2.3
2017-02-24T07:17:43.877Z,2.3
2017-02-24T07:18:49.835Z,2.3
2017-02-24T07:19:55.825Z,2.3
2017-02-24T07:21:02.118Z,2.4
2017-02-24T07:22:08.174Z,2.3
2017-02-24T07:23:14.258Z,2.3
2017-02-24T07:24:19.476Z,2.3
2017-02-24T07:25:25.464Z,2.3
2017-02-24T07:26:30.791Z,2.2
2017-02-24T07:27:36.825Z,2.3
2017-02-24T07:28:42.829Z,2.5
2017-02-24T07:29:48.897Z,2.4
2017-02-24T07:30:54.953Z,2.4
2017-02-24T07:32:00.867Z,2.3
2017-02-24T07:33:06.892Z,2.3
2017-02-24T07:34:12.478Z,2.3
2017-02-24T07:35:18.567Z,2.3
2017-02-24T07:36:24.800Z,2.3
2017-02-24T07:37:30.921Z,2.4
2017-02-24T07:38:37.298Z,2.3
2017-02-24T07:39:43.776Z,2.3
2017-02-24T07:40:49.674Z,2.5
2017-02-24T07:41:55.376Z,2.3
2017-02-24T07:42:59.426Z,2.4
2017-02-24T07:44:04.868Z,2.4
2017-02-24T07:45:10.461Z,2.5
2017-02-24T07:46:15.118Z,2.5
2017-02-24T07:47:22.890Z,2.4
2017-02-24T07:48:27.227Z,2.4
2017-02-24T07:49:32.622Z,2.5
2017-02-24T07:50:37.047Z,2.5
2017-02-24T07:51:41.165Z,2.5
2017-02-24T07:52:46.900Z,2.5
2017-02-24T07:53:51.158Z,2.4
2017-02-24T07:54:57.145Z,2.4
2017-02-24T07:56:03.133Z,2.5
2017-02-24T07:57:09.109Z,2.4
2017-02-24T07:58:15.096Z,2.5
2017-02-24T07:59:21.080Z,2.6
2017-02-24T08:00:27.063Z,2.6
2017-02-24T08:01:33.128Z,2.5
2017-02-24T08:02:39.098Z,2.5
2017-02-24T08:03:45.085Z,2.5
2017-02-24T08:04:50.404Z,2.6
2017-02-24T08:05:56.416Z,2.5
2017-02-24T08:07:02.404Z,2.6
2017-02-24T08:08:08.386Z,2.6
2017-02-24T08:09:14.368Z,2.5
2017-02-24T08:10:20.353Z,2.4
2017-02-24T08:11:26.335Z,2.5
2017-02-24T08:12:32.321Z,2.5
2017-02-24T08:13:38.305Z,2.7
2017-02-24T08:14:44.287Z,2.7
2017-02-24T08:15:50.273Z,2.6
2017-02-24T08:16:56.259Z,2.4
2017-02-24T08:18:02.238Z,2.4
2017-02-24T08:19:08.222Z,2.5
2017-02-24T08:20:14.208Z,2.5
2017-02-24T08:21:20.194Z,2.4
2017-02-24T08:22:26.177Z,2.6
2017-02-24T08:23:32.478Z,2.5
2017-02-24T08:24:38.201Z,2.5
2017-02-24T08:25:43.089Z,2.6
2017-02-24T08:26:48.406Z,2.7
2017-02-24T08:27:54.389Z,2.7
2017-02-24T08:29:00.374Z,2.7
2017-02-24T08:30:04.589Z,2.8
2017-02-24T08:31:10.570Z,2.8
2017-02-24T08:32:16.559Z,2.8
2017-02-24T08:33:22.544Z,2.8
2017-02-24T08:34:27.865Z,2.7
2017-02-24T08:35:33.850Z,2.8
2017-02-24T08:36:39.834Z,2.6
2017-02-24T08:37:45.818Z,2.5
2017-02-24T08:38:51.805Z,2.6
2017-02-24T08:39:57.788Z,2.6
2017-02-24T08:41:03.769Z,2.6
2017-02-24T08:42:09.753Z,2.6
2017-02-24T08:43:15.740Z,2.6
2017-02-24T08:44:21.722Z,2.8
2017-02-24T08:45:26.605Z,2.8
2017-02-24T08:46:32.612Z,3
2017-02-24T08:47:38.603Z,3
2017-02-24T08:48:44.584Z,2.9
2017-02-24T08:49:50.820Z,2.9
2017-02-24T08:50:56.803Z,2.9
2017-02-24T08:52:02.790Z,3
2017-02-24T08:53:08.774Z,2.9
2017-02-24T08:54:14.760Z,2.9
2017-02-24T08:55:20.738Z,2.9
2017-02-24T08:56:26.723Z,3
2017-02-24T08:57:32.711Z,3.1
2017-02-24T08:58:38.693Z,3.1
2017-02-24T08:59:44.676Z,3
2017-02-24T09:00:50.662Z,3
2017-02-24T09:01:56.644Z,3.1
2017-02-24T09:03:01.528Z,3
2017-02-24T09:04:07.513Z,2.9
2017-02-24T09:05:13.499Z,2.9
2017-02-24T09:06:19.482Z,3
2017-02-24T09:07:25.464Z,3.1
2017-02-24T09:08:31.454Z,3.1
2017-02-24T09:09:37.433Z,3.1
2017-02-24T09:10:43.417Z,3.2
2017-02-24T09:11:49.400Z,3.2
2017-02-24T09:12:55.386Z,3.4
2017-02-24T09:14:01.370Z,3.4
2017-02-24T09:15:06.692Z,3.6
2017-02-24T09:16:12.008Z,3.5
2017-02-24T09:17:17.330Z,3.5
2017-02-24T09:18:23.309Z,3.5
2017-02-24T09:19:29.298Z,3.5
2017-02-24T09:20:35.279Z,3.6
2017-02-24T09:21:40.172Z,3.6
2017-02-24T09:22:45.489Z,3.6
2017-02-24T09:23:51.474Z,3.5
2017-02-24T09:24:57.455Z,3.5
2017-02-24T09:26:03.442Z,3.7
2017-02-24T09:27:09.429Z,3.6
2017-02-24T09:28:15.413Z,3.7
2017-02-24T09:29:21.392Z,3.6
2017-02-24T09:30:27.377Z,3.6
2017-02-24T09:31:33.364Z,3.7
2017-02-24T09:32:39.342Z,3.9
2017-02-24T09:33:45.333Z,4
2017-02-24T09:34:51.315Z,4.1
2017-02-24T09:35:57.302Z,4.1
2017-02-24T09:37:03.284Z,4
2017-02-24T09:38:09.269Z,4.1
2017-02-24T09:39:15.255Z,4.1
2017-02-24T09:40:21.239Z,4.2
2017-02-24T09:41:27.224Z,4.2
2017-02-24T09:42:33.209Z,4.3
2017-02-24T09:43:39.190Z,4.3
2017-02-24T09:44:45.182Z,4.5
2017-02-24T09:45:50.494Z,4.5
2017-02-24T09:46:56.481Z,4.4
2017-02-24T09:48:02.463Z,4.5
2017-02-24T09:49:08.449Z,4.6
2017-02-24T09:50:14.433Z,4.5
2017-02-24T09:51:20.417Z,4.5
2017-02-24T09:52:26.403Z,4.5
2017-02-24T09:53:32.386Z,4.6
2017-02-24T09:54:38.367Z,4.7
2017-02-24T09:55:44.354Z,4.7
2017-02-24T09:56:50.337Z,4.7
2017-02-24T09:57:56.320Z,4.7
2017-02-24T09:59:02.303Z,4.7
2017-02-24T10:00:08.288Z,4.7
2017-02-24T10:01:14.268Z,4.6
2017-02-24T10:02:20.254Z,4.8
2017-02-24T10:03:26.239Z,4.5
2017-02-24T10:04:32.227Z,4.6
2017-02-24T10:05:38.220Z,4.8
2017-02-24T10:06:44.206Z,4.7
2017-02-24T10:07:50.189Z,4.9
2017-02-24T10:08:56.169Z,4.9
2017-02-24T10:10:01.053Z,5.1
2017-02-24T10:11:07.036Z,5.1
2017-02-24T10:12:13.021Z,5
2017-02-24T10:13:19.006Z,5.2
2017-02-24T10:14:24.990Z,5.2
2017-02-24T10:15:30.973Z,5.1
2017-02-24T10:16:36.955Z,5.4
2017-02-24T10:17:42.942Z,5.3
2017-02-24T10:18:47.829Z,5.4
2017-02-24T10:19:53.816Z,5.5
2017-02-24T10:20:59.794Z,5.6
2017-02-24T10:22:05.781Z,5.7
2017-02-24T10:23:11.968Z,5.8
2017-02-24T10:24:17.956Z,5.9
2017-02-24T10:25:23.938Z,5.9
2017-02-24T10:26:29.921Z,6.1
2017-02-24T10:27:35.900Z,6.1
2017-02-24T10:28:41.889Z,6.4
2017-02-24T10:29:47.872Z,6.4
2017-02-24T10:30:53.856Z,6.6
2017-02-24T10:31:59.844Z,6.6
2017-02-24T10:33:05.167Z,6.7
2017-02-24T10:34:11.151Z,6.7
2017-02-24T10:35:17.131Z,6.7
2017-02-24T10:36:23.117Z,6.6
2017-02-24T10:37:29.100Z,6.9
2017-02-24T10:38:34.424Z,7
2017-02-24T10:39:40.407Z,7.1
2017-02-24T10:40:46.390Z,7
2017-02-24T10:41:52.372Z,7
2017-02-24T10:42:58.358Z,7.3
2017-02-24T10:44:04.343Z,7.8
2017-02-24T10:45:10.329Z,8.1
2017-02-24T10:46:16.310Z,8.5
2017-02-24T10:47:22.296Z,7.7
2017-02-24T10:48:28.275Z,7.8
2017-02-24T10:49:34.262Z,8.2
2017-02-24T10:50:40.248Z,8.7
2017-02-24T10:51:46.236Z,8.7
2017-02-24T10:52:51.116Z,8.6
2017-02-24T10:53:57.100Z,8.6
2017-02-24T10:55:01.987Z,8.5
2017-02-24T10:56:07.967Z,8.7
2017-02-24T10:57:13.957Z,8.4
2017-02-24T10:58:19.933Z,9.1
2017-02-24T10:59:25.918Z,9.8
2017-02-24T11:00:31.904Z,10.2
2017-02-24T11:01:37.891Z,10.5
2017-02-24T11:02:43.215Z,9.7
2017-02-24T11:03:49.197Z,9.6
2017-02-24T11:04:55.181Z,9.3
2017-02-24T11:06:01.170Z,9.2
2017-02-24T11:07:07.152Z,9.3
2017-02-24T11:08:13.135Z,9
2017-02-24T11:09:19.117Z,9.2
2017-02-24T11:10:25.108Z,10
2017-02-24T11:11:30.429Z,9.6
2017-02-24T11:12:36.413Z,9.5
2017-02-24T11:13:42.391Z,9.7
2017-02-24T11:14:48.377Z,10.3
2017-02-24T11:15:54.364Z,10.5
2017-02-24T11:17:00.350Z,10.3
2017-02-24T11:18:06.337Z,10.5
2017-02-24T11:19:12.324Z,10.5
2017-02-24T11:20:17.649Z,10.6
2017-02-24T11:21:23.638Z,10.1
2017-02-24T11:22:29.622Z,10
2017-02-24T11:23:34.508Z,10.2
2017-02-24T11:24:40.493Z,10.1
2017-02-24T11:25:46.475Z,9.9
2017-02-24T11:26:51.799Z,9.5
2017-02-24T11:28:04.179Z,10.2
2017-02-24T11:29:10.168Z,10.5
2017-02-24T11:30:16.153Z,10.2
2017-02-24T11:31:22.138Z,10.8
2017-02-24T11:32:28.127Z,11.2
2017-02-24T11:33:34.115Z,11.7
2017-02-24T11:34:40.100Z,12
2017-02-24T11:35:45.427Z,11.8
2017-02-24T11:36:51.409Z,11.8
2017-02-24T11:37:56.735Z,11.5
2017-02-24T11:39:02.061Z,10.7
2017-02-24T11:40:08.046Z,10.9
2017-02-24T11:41:14.033Z,11.2
2017-02-24T11:42:20.020Z,11.8
2017-02-24T11:43:26.007Z,11.7
2017-02-24T11:44:31.991Z,11.7
2017-02-24T11:45:37.980Z,12.1
2017-02-24T11:46:43.964Z,11.8
2017-02-24T11:47:49.949Z,12
2017-02-24T11:48:54.833Z,11.6
2017-02-24T11:50:00.820Z,11.7
2017-02-24T11:51:06.805Z,10.9
2017-02-24T11:52:12.793Z,11
2017-02-24T11:53:18.777Z,11.3
2017-02-24T11:54:24.763Z,11.1
2017-02-24T11:55:29.650Z,10.9
2017-02-24T11:56:35.637Z,11.4
2017-02-24T11:57:41.619Z,11.9
2017-02-24T11:58:46.944Z,12
2017-02-24T11:59:52.931Z,12.1
2017-02-24T12:00:58.255Z,11.8
2017-02-24T12:02:03.136Z,11.4
2017-02-24T12:03:09.125Z,11.4
2017-02-24T12:04:15.109Z,11.4
2017-02-24T12:05:21.095Z,12
2017-02-24T12:06:27.075Z,12
2017-02-24T12:07:33.065Z,12.1
2017-02-24T12:08:39.049Z,11.7
2017-02-24T12:09:45.034Z,12.1
2017-02-24T12:10:51.023Z,12.4
2017-02-24T12:11:57.011Z,11.7
2017-02-24T12:13:02.996Z,11.7
2017-02-24T12:14:07.878Z,12.1
2017-02-24T12:15:13.863Z,12.6
2017-02-24T12:16:19.850Z,12.3
2017-02-24T12:17:25.835Z,12.3
2017-02-24T12:18:31.822Z,12.5
2017-02-24T12:19:37.805Z,12
2017-02-24T12:20:43.795Z,12.8
2017-02-24T12:21:49.988Z,13.2
2017-02-24T12:22:55.970Z,13
2017-02-24T12:24:01.953Z,12.6
2017-02-24T12:25:07.938Z,13.1
2017-02-24T12:26:13.929Z,13.2
2017-02-24T12:27:19.911Z,13.2
2017-02-24T12:28:25.900Z,12.9
2017-02-24T12:29:31.224Z,13.7
2017-02-24T12:30:37.214Z,14.1
2017-02-24T12:31:43.196Z,13
2017-02-24T12:32:49.185Z,14.3
2017-02-24T12:33:55.173Z,15.2
2017-02-24T12:35:01.159Z,16.5
2017-02-24T12:36:07.140Z,15.9
2017-02-24T12:37:13.126Z,15.2
2017-02-24T12:38:18.452Z,15.1
2017-02-24T12:39:24.436Z,14.8
2017-02-24T12:40:30.421Z,15.9
2017-02-24T12:41:36.411Z,14
2017-02-24T12:42:42.395Z,13.7
2017-02-24T12:43:48.379Z,15.2
2017-02-24T12:44:54.362Z,16.8
2017-02-24T12:46:00.346Z,17.9
2017-02-24T12:47:06.335Z,17.9
2017-02-24T12:48:12.322Z,16.6
2017-02-24T12:49:17.643Z,15.9
2017-02-24T12:50:23.630Z,17
2017-02-24T12:51:29.617Z,18
2017-02-24T12:52:35.597Z,17.3
2017-02-24T12:53:41.583Z,15.3
2017-02-24T12:54:47.573Z,14.2
2017-02-24T12:55:53.618Z,15.2
2017-02-24T12:56:59.571Z,15.7
2017-02-24T12:58:05.559Z,15.5
2017-02-24T12:59:11.547Z,15.9
2017-02-24T13:00:16.432Z,16.3
2017-02-24T13:01:22.414Z,16.1
2017-02-24T13:02:28.401Z,15.4
2017-02-24T13:03:34.385Z,14.9
2017-02-24T13:04:40.368Z,14.8
2017-02-24T13:05:46.357Z,13.9
2017-02-24T13:06:52.347Z,13
2017-02-24T13:07:58.334Z,12.5
2017-02-24T13:09:04.319Z,12
2017-02-24T13:10:10.304Z,12.3
2017-02-24T13:11:16.290Z,12.4
2017-02-24T13:12:22.285Z,11
2017-02-24T13:13:28.276Z,10.9
2017-02-24T13:14:34.260Z,11.2
2017-02-24T13:15:40.244Z,11.4
2017-02-24T13:16:46.227Z,11.8
2017-02-24T13:17:52.213Z,11.7
2017-02-24T13:18:58.198Z,12.2
2017-02-24T13:20:04.184Z,12
2017-02-24T13:21:10.196Z,12.1
2017-02-24T13:22:15.091Z,11.7
2017-02-24T13:23:21.080Z,12.3
2017-02-24T13:24:27.065Z,12.2
2017-02-24T13:25:33.049Z,11.9
2017-02-24T13:26:39.041Z,11.5
2017-02-24T13:27:45.027Z,11.7
2017-02-24T13:28:51.014Z,12
2017-02-24T13:29:55.905Z,11.8
2017-02-24T13:31:01.237Z,11.8
2017-02-24T13:32:07.226Z,12.3
2017-02-24T13:33:13.209Z,12.6
2017-02-24T13:34:18.104Z,12.4
2017-02-24T13:35:22.988Z,12.6
2017-02-24T13:36:28.981Z,12.3
2017-02-24T13:37:34.956Z,12.1
2017-02-24T13:38:40.950Z,11.7
2017-02-24T13:39:46.939Z,12.1
2017-02-24T13:40:52.925Z,12
2017-02-24T13:41:58.920Z,11.9
2017-02-24T13:43:04.924Z,11.8
2017-02-24T13:44:10.916Z,12.2
2017-02-24T13:45:16.901Z,12.5
2017-02-24T13:46:21.796Z,12.1
2017-02-24T13:47:27.787Z,11.6
2017-02-24T13:48:32.670Z,11.7
2017-02-24T13:49:38.000Z,11.5
2017-02-24T13:50:43.988Z,12
2017-02-24T13:51:48.864Z,12.1
2017-02-24T13:52:54.847Z,11.9
2017-02-24T13:54:00.847Z,12.2
2017-02-24T13:55:06.831Z,12.4
2017-02-24T13:56:12.823Z,12.4
2017-02-24T13:57:18.810Z,12.7
2017-02-24T13:58:24.802Z,12.9
2017-02-24T13:59:30.786Z,11.8
2017-02-24T14:00:36.787Z,12.2
2017-02-24T14:01:42.774Z,12.7
2017-02-24T14:02:48.765Z,13.4
2017-02-24T14:03:54.746Z,13.3
2017-02-24T14:05:00.766Z,13.1
2017-02-24T14:06:05.648Z,12.6
2017-02-24T14:07:11.631Z,11.9
2017-02-24T14:08:17.624Z,12.3
2017-02-24T14:09:23.631Z,12.8
2017-02-24T14:10:29.604Z,13.4
2017-02-24T14:11:35.595Z,13.2
2017-02-24T14:12:41.584Z,13.4
2017-02-24T14:13:47.574Z,13.4
2017-02-24T14:14:53.564Z,13.8
2017-02-24T14:15:58.456Z,14.2
2017-02-24T14:17:04.446Z,13.7
2017-02-24T14:18:10.485Z,13.6
2017-02-24T14:19:16.447Z,13.4
2017-02-24T14:20:22.439Z,13
2017-02-24T14:21:28.423Z,12.5
2017-02-24T14:22:34.409Z,12
2017-02-24T14:23:39.733Z,11.4
2017-02-24T14:24:45.056Z,11.9
2017-02-24T14:25:51.046Z,11.7
2017-02-24T14:26:57.039Z,11.9
2017-02-24T14:28:02.372Z,11.9
2017-02-24T14:29:08.355Z,12.4
2017-02-24T14:30:14.354Z,11.6
2017-02-24T14:31:20.344Z,11.7
2017-02-24T14:32:26.331Z,11.7
2017-02-24T14:33:32.318Z,11.6
2017-02-24T14:34:37.655Z,11.3
2017-02-24T14:35:43.641Z,11.8
2017-02-24T14:36:49.622Z,12.2
2017-02-24T14:37:55.610Z,12.1
2017-02-24T14:39:00.936Z,11.7
2017-02-24T14:40:06.929Z,11.3
2017-02-24T14:41:12.950Z,11.2
2017-02-24T14:42:18.950Z,11.2
2017-02-24T14:43:24.285Z,11.1
2017-02-24T14:44:30.271Z,10.8
2017-02-24T14:45:36.265Z,10.4
2017-02-24T14:46:42.248Z,10.2
2017-02-24T14:47:47.137Z,10.3
2017-02-24T14:48:53.122Z,10.2
2017-02-24T14:49:59.114Z,10.2
2017-02-24T14:51:05.100Z,10.2
2017-02-24T14:52:11.086Z,9.9
2017-02-24T14:53:17.124Z,9.9
2017-02-24T14:54:23.248Z,9.4
2017-02-24T14:55:29.120Z,9.6
2017-02-24T14:56:35.106Z,9
2017-02-24T14:57:41.110Z,9.2
2017-02-24T14:58:47.104Z,9.2
2017-02-24T14:59:53.085Z,9.1
2017-02-24T15:00:59.068Z,8.9
2017-02-24T15:02:05.052Z,9
2017-02-24T15:03:11.041Z,8.8
2017-02-24T15:04:17.051Z,9
2017-02-24T15:05:23.034Z,8.9